Impacts TAF Board INFO
FOR SITUATIONAL AWARENESS. NOT TO BE USED FOR FLIGHT PLANNING PURPOSES.
IDs:

KMEM - Memphis Intl, TN, US

Issued at 0310 UTC 15 Dec 2017
Updated at 0433 UTC 15 Dec 2017
Potential Impact None Slight Moderate High
Time0354Z 15/05Z 15/06Z 15/07Z 15/08Z 15/09Z 15/10Z 15/11Z 15/12Z 15/13Z 15/14Z 15/15Z 15/16Z 15/17Z>>
Type OBS PRVL PRVL PRVL PRVL PRVL PRVL PRVL PRVL PRVL PRVL PRVL PRVL PRVL
VIS 10 >6 >6 >6 >6 >6 >6 >6 >6 >6 >6 >6 >6 >6
CIG -- -- -- -- -- -- -- -- -- -- -- -- -- --
Cover SCT FEW FEW FEW FEW FEW FEW FEW FEW FEW FEW SCT SCT SCT
FltCat VFR VFR VFR VFR VFR VFR VFR VFR VFR VFR VFR VFR VFR VFR
WX -- -- -- -- -- -- -- -- -- -- -- -- -- --
WDir 30 30 30 30 30 30 30 30 30 30 30 310 310 310
WSpd 7 3 3 3 3 3 3 3 3 3 3 7 7 7
WGst -- -- -- -- -- -- -- -- -- -- -- -- -- --

Raw TAF
KMEM 150310Z 1503/1606 03003KT P6SM FEW200
  FM151500 31007KT P6SM SCT040
  FM160000 20004KT P6SM SKC


Raw METAR
KMEM 150354Z 03007KT 10SM SCT250 02/M03 A3013 RMK AO2 SLP203 T00221028
KMEM 150254Z 02004KT 10SM FEW200 02/M03 A3011 RMK AO2 SLP198 T00171033 51013
KMEM 150154Z 03004KT 10SM CLR 03/M03 A3011 RMK AO2 SLP196 T00331033

METAR Board
Radar Display
Forecast Discussion

FOR SITUATIONAL AWARENESS. NOT TO BE USED FOR FLIGHT PLANNING PURPOSES.